CGAUU CYYJ-CYLW
Flight info
| Callsign | CGAUU |
|---|---|
| Flight time | N/A |
| Altitude | 25000 |
| Route | SQURL DCT YDC PIGLU5 |
| Aircraft | SF50/L-SDGRWY/L |
Departure
| Time | 2026-05-08 03:48 |
|---|---|
| Airport | Victoria International Airport (CYYJ) |
Arrival
| Time | N/A |
|---|---|
| Airport | Kelowna International Airport (CYLW) |
| Time | Latitude | Longitude | Altitude | Speed | Heading |
|---|---|---|---|---|---|
| 2026-05-08 03:23 | 48.64366 | -123.42267 | 51 ft | 0 kts | 101° |
| 2026-05-08 03:39 | 48.64377 | -123.42253 | 51 ft | 2 kts | 350° |
| 2026-05-08 03:39 | 48.64404 | -123.42273 | 51 ft | 8 kts | 314° |
| 2026-05-08 03:39 | 48.64422 | -123.42329 | 51 ft | 7 kts | 321° |
| 2026-05-08 03:39 | 48.64453 | -123.42327 | 51 ft | 3 kts | 20° |
| 2026-05-08 03:40 | 48.64466 | -123.42320 | 51 ft | 7 kts | 16° |
| 2026-05-08 03:40 | 48.64535 | -123.42292 | 51 ft | 12 kts | 16° |
| 2026-05-08 03:40 | 48.64620 | -123.42254 | 51 ft | 13 kts | 17° |
| 2026-05-08 03:40 | 48.64691 | -123.42181 | 51 ft | 10 kts | 44° |
| 2026-05-08 03:41 | 48.64728 | -123.42177 | 51 ft | 6 kts | 291° |
| 2026-05-08 03:41 | 48.64740 | -123.42242 | 51 ft | 8 kts | 287° |
| 2026-05-08 03:41 | 48.64756 | -123.42338 | 51 ft | 11 kts | 282° |
| 2026-05-08 03:41 | 48.64783 | -123.42467 | 50 ft | 14 kts | 287° |
| 2026-05-08 03:42 | 48.64809 | -123.42620 | 50 ft | 16 kts | 282° |
| 2026-05-08 03:42 | 48.64839 | -123.42782 | 50 ft | 15 kts | 290° |
| 2026-05-08 03:42 | 48.64870 | -123.42917 | 51 ft | 12 kts | 285° |
| 2026-05-08 03:42 | 48.64890 | -123.43027 | 52 ft | 10 kts | 283° |
| 2026-05-08 03:43 | 48.64908 | -123.43125 | 51 ft | 10 kts | 288° |
| 2026-05-08 03:43 | 48.64927 | -123.43224 | 50 ft | 10 kts | 284° |
| 2026-05-08 03:43 | 48.64945 | -123.43325 | 50 ft | 10 kts | 289° |
| 2026-05-08 03:43 | 48.64966 | -123.43423 | 49 ft | 10 kts | 284° |
| 2026-05-08 03:44 | 48.64987 | -123.43532 | 49 ft | 11 kts | 286° |
| 2026-05-08 03:44 | 48.65005 | -123.43636 | 49 ft | 9 kts | 284° |
| 2026-05-08 03:44 | 48.65019 | -123.43719 | 49 ft | 7 kts | 289° |
| 2026-05-08 03:44 | 48.65035 | -123.43785 | 49 ft | 6 kts | 287° |
| 2026-05-08 03:45 | 48.65045 | -123.43836 | 48 ft | 4 kts | 288° |
| 2026-05-08 03:45 | 48.65064 | -123.43866 | 48 ft | 4 kts | 335° |
| 2026-05-08 03:45 | 48.65092 | -123.43889 | 48 ft | 5 kts | 328° |
| 2026-05-08 03:45 | 48.65122 | -123.43916 | 47 ft | 6 kts | 332° |
| 2026-05-08 03:46 | 48.65166 | -123.43909 | 47 ft | 7 kts | 57° |
| 2026-05-08 03:46 | 48.65169 | -123.43871 | 47 ft | 0 kts | 102° |
| 2026-05-08 03:46 | 48.65164 | -123.43841 | 47 ft | 13 kts | 101° |
| 2026-05-08 03:47 | 48.65113 | -123.43564 | 48 ft | 43 kts | 106° |
| 2026-05-08 03:47 | 48.64996 | -123.42969 | 51 ft | 77 kts | 107° |
| 2026-05-08 03:47 | 48.64824 | -123.42091 | 178 ft | 91 kts | 104° |
| 2026-05-08 03:47 | 48.64575 | -123.41056 | 223 ft | 117 kts | 112° |
| 2026-05-08 03:48 | 48.64280 | -123.39842 | 243 ft | 129 kts | 109° |
| 2026-05-08 03:48 | 48.63974 | -123.38400 | 364 ft | 153 kts | 111° |
| 2026-05-08 03:48 | 48.63610 | -123.36850 | 585 ft | 160 kts | 112° |
| 2026-05-08 03:48 | 48.63273 | -123.35235 | 837 ft | 163 kts | 108° |
| 2026-05-08 03:49 | 48.62943 | -123.33566 | 1082 ft | 170 kts | 108° |
| 2026-05-08 03:49 | 48.62568 | -123.31870 | 1761 ft | 167 kts | 112° |
| 2026-05-08 03:49 | 48.62199 | -123.30189 | 2411 ft | 171 kts | 104° |
| 2026-05-08 03:49 | 48.62343 | -123.28396 | 2974 ft | 182 kts | 69° |
| 2026-05-08 03:50 | 48.62975 | -123.26563 | 3016 ft | 210 kts | 62° |
| 2026-05-08 03:50 | 48.63650 | -123.24678 | 3840 ft | 192 kts | 62° |
| 2026-05-08 03:50 | 48.64243 | -123.22995 | 4749 ft | 177 kts | 62° |
| 2026-05-08 03:50 | 48.64814 | -123.21317 | 5299 ft | 181 kts | 62° |
| 2026-05-08 03:51 | 48.65465 | -123.19670 | 5845 ft | 184 kts | 56° |
| 2026-05-08 03:51 | 48.66152 | -123.18026 | 6382 ft | 186 kts | 58° |
| 2026-05-08 03:51 | 48.66948 | -123.16472 | 6902 ft | 188 kts | 50° |
| 2026-05-08 03:51 | 48.67712 | -123.14856 | 7393 ft | 189 kts | 56° |
| 2026-05-08 03:52 | 48.68443 | -123.13189 | 7900 ft | 191 kts | 56° |
| 2026-05-08 03:52 | 48.69183 | -123.11508 | 8408 ft | 193 kts | 56° |
| 2026-05-08 03:52 | 48.70000 | -123.09902 | 8908 ft | 193 kts | 54° |
| 2026-05-08 03:52 | 48.70760 | -123.08222 | 9423 ft | 194 kts | 57° |
| 2026-05-08 03:53 | 48.71518 | -123.06522 | 9925 ft | 196 kts | 57° |
| 2026-05-08 03:53 | 48.72170 | -123.04721 | 10345 ft | 197 kts | 76° |
| 2026-05-08 03:53 | 48.72396 | -123.02683 | 10788 ft | 197 kts | 84° |
| 2026-05-08 03:53 | 48.72577 | -123.00617 | 11187 ft | 200 kts | 79° |
| 2026-05-08 03:54 | 48.72857 | -122.98549 | 11619 ft | 201 kts | 81° |
| 2026-05-08 03:54 | 48.73088 | -122.96451 | 12052 ft | 203 kts | 83° |
| 2026-05-08 03:54 | 48.73345 | -122.94338 | 12462 ft | 205 kts | 78° |
| 2026-05-08 03:54 | 48.73663 | -122.92218 | 12883 ft | 207 kts | 79° |
| 2026-05-08 03:55 | 48.73983 | -122.90084 | 13292 ft | 209 kts | 77° |
| 2026-05-08 03:55 | 48.74288 | -122.87921 | 13687 ft | 210 kts | 86° |
| 2026-05-08 03:55 | 48.74351 | -122.85702 | 14022 ft | 212 kts | 90° |
| 2026-05-08 03:55 | 48.74679 | -122.83521 | 14252 ft | 223 kts | 63° |
| 2026-05-08 03:56 | 48.75807 | -122.81928 | 14694 ft | 216 kts | 30° |
| 2026-05-08 03:56 | 48.76990 | -122.80531 | 15015 ft | 219 kts | 40° |
| 2026-05-08 03:56 | 48.78218 | -122.79149 | 15365 ft | 221 kts | 37° |
| 2026-05-08 03:56 | 48.79404 | -122.77660 | 15727 ft | 222 kts | 41° |